Time;durP1;ratioP1;P1;durP2;ratioP2;P2;SDS_P1;SDS_P2;PMS_P1;PMS_P2;Temp;Humidity;BMP_temperature;BMP_pressure;BME280_temperature;BME280_humidity;BME280_pressure;Samples;Min_cycle;Max_cycle;Signal;HPM_P1;HPM_P2
2022/10/19 00:01:02;;;;;;;57.10;40.65;;;8.60;99.90;;;;;;4770237;30;20035;-74
2022/10/19 00:03:28;;;;;;;62.50;41.80;;;8.60;99.90;;;;;;4769327;30;20383;-71
2022/10/19 00:05:53;;;;;;;63.85;44.35;;;8.60;99.90;;;;;;4773922;30;20128;-72
2022/10/19 00:08:19;;;;;;;64.85;42.30;;;8.70;99.90;;;;;;4771540;30;20114;-72
2022/10/19 00:10:45;;;;;;;58.38;41.20;;;8.70;99.90;;;;;;4771255;30;20040;-71
2022/10/19 00:13:11;;;;;;;59.53;42.70;;;8.60;99.90;;;;;;4771411;30;20076;-72
2022/10/19 00:15:40;;;;;;;61.25;42.17;;;8.70;99.90;;;;;;4771425;30;20056;-72
2022/10/19 00:18:07;;;;;;;57.75;40.10;;;8.60;99.90;;;;;;4771281;30;20115;-72
2022/10/19 00:20:35;;;;;;;52.90;39.10;;;8.70;99.90;;;;;;4771464;30;20047;-71
2022/10/19 00:23:01;;;;;;;57.10;40.28;;;8.60;99.90;;;;;;4771145;30;20483;-72
2022/10/19 00:25:27;;;;;;;60.35;40.92;;;8.70;99.90;;;;;;4771112;30;21196;-71
2022/10/19 00:27:53;;;;;;;57.17;40.20;;;8.60;99.90;;;;;;4774875;29;20083;-72
2022/10/19 00:30:19;;;;;;;54.65;39.70;;;8.60;99.90;;;;;;4788421;29;20039;-72
2022/10/19 00:32:44;;;;;;;53.05;38.92;;;8.50;99.90;;;;;;4788997;29;20051;-72
2022/10/19 00:35:10;;;;;;;56.78;40.30;;;8.50;99.90;;;;;;4788894;29;20059;-72
2022/10/19 00:37:36;;;;;;;52.47;37.25;;;8.60;99.90;;;;;;4788788;29;20026;-72
2022/10/19 00:40:02;;;;;;;52.78;37.75;;;8.60;99.90;;;;;;4789116;29;20027;-72
2022/10/19 00:42:28;;;;;;;45.13;33.95;;;8.60;99.90;;;;;;4788100;29;20023;-72
2022/10/19 00:44:58;;;;;;;49.25;34.80;;;8.60;99.90;;;;;;4788611;29;20061;-71
2022/10/19 00:47:24;;;;;;;49.05;32.85;;;8.60;99.90;;;;;;4787637;29;20027;-72
2022/10/19 00:49:51;;;;;;;51.38;35.97;;;8.50;99.90;;;;;;4788641;29;20036;-72
2022/10/19 00:52:20;;;;;;;54.33;36.90;;;8.50;99.90;;;;;;4788856;29;20475;-72
2022/10/19 00:54:49;;;;;;;48.22;35.53;;;8.50;99.90;;;;;;4789399;29;20440;-72
2022/10/19 00:57:15;;;;;;;49.17;36.30;;;8.50;99.90;;;;;;4788387;29;20035;-72
2022/10/19 00:59:43;;;;;;;46.72;34.53;;;8.50;99.90;;;;;;4788455;29;20027;-72
2022/10/19 01:02:09;;;;;;;49.35;33.78;;;8.50;99.90;;;;;;4788555;29;20031;-73
2022/10/19 01:04:39;;;;;;;41.47;31.30;;;8.60;99.90;;;;;;4788019;29;20039;-72
2022/10/19 01:07:06;;;;;;;44.30;31.65;;;8.60;99.90;;;;;;4791537;29;20035;-73
2022/10/19 01:09:33;;;;;;;43.88;29.15;;;8.60;99.90;;;;;;4788411;29;20087;-72
2022/10/19 01:12:23;;;;;;;38.40;27.70;;;8.60;99.90;;;;;;4788393;29;20035;-72
2022/10/19 01:15:00;;;;;;;38.50;27.77;;;8.60;99.90;;;;;;4788159;29;20039;-71
2022/10/19 01:17:44;;;;;;;35.53;26.50;;;8.50;99.90;;;;;;4787881;29;20111;-72
2022/10/19 01:20:38;;;;;;;36.10;28.42;;;8.60;99.90;;;;;;4791651;29;20102;-73
2022/10/19 01:23:18;;;;;;;44.42;29.10;;;8.60;99.90;;;;;;4784304;29;20043;-72
2022/10/19 01:25:58;;;;;;;43.25;29.50;;;8.50;99.90;;;;;;4788048;29;20028;-74
2022/10/19 01:28:42;;;;;;;39.72;29.25;;;8.40;99.90;;;;;;4787634;29;20068;-73
2022/10/19 01:31:26;;;;;;;38.80;28.02;;;8.30;99.90;;;;;;4788154;29;20031;-73
2022/10/19 01:34:05;;;;;;;39.35;28.90;;;8.40;99.90;;;;;;4787986;29;20038;-72
2022/10/19 01:37:00;;;;;;;41.92;29.92;;;8.30;99.90;;;;;;4787972;29;20031;-73
2022/10/19 01:39:53;;;;;;;43.92;30.05;;;8.30;99.90;;;;;;4787963;29;20042;-72
2022/10/19 01:42:32;;;;;;;36.05;27.65;;;8.30;99.90;;;;;;4787684;29;20027;-72
2022/10/19 01:45:00;;;;;;;46.17;28.10;;;8.30;99.90;;;;;;4789334;29;20043;-72
2022/10/19 01:47:33;;;;;;;36.75;28.17;;;8.30;99.90;;;;;;4783916;30;20030;-72
2022/10/19 01:50:09;;;;;;;43.90;30.27;;;8.40;99.90;;;;;;4785187;30;20035;-72
2022/10/19 01:52:36;;;;;;;42.33;29.50;;;8.40;99.90;;;;;;4787216;29;20038;-72
2022/10/19 01:55:04;;;;;;;40.95;29.25;;;8.50;99.90;;;;;;4788198;30;20529;-71
2022/10/19 01:57:35;;;;;;;40.00;29.73;;;8.50;99.90;;;;;;4787665;30;20031;-74
2022/10/19 02:00:06;;;;;;;42.22;28.27;;;8.50;99.90;;;;;;4788034;30;20042;-72
2022/10/19 02:02:41;;;;;;;37.95;25.73;;;8.50;99.90;;;;;;4787929;30;20039;-72
2022/10/19 02:05:10;;;;;;;37.35;25.58;;;8.50;99.90;;;;;;4788085;30;20113;-72
2022/10/19 02:07:39;;;;;;;33.25;24.90;;;8.50;99.90;;;;;;4787613;30;20446;-73
2022/10/19 02:10:06;;;;;;;33.67;21.95;;;8.50;99.90;;;;;;4788018;30;20486;-73
2022/10/19 02:12:32;;;;;;;33.83;23.67;;;8.50;99.90;;;;;;4787941;29;20024;-72
2022/10/19 02:15:03;;;;;;;34.20;22.30;;;8.40;99.90;;;;;;4787744;29;20031;-74
2022/10/19 02:17:34;;;;;;;36.78;26.45;;;8.50;99.90;;;;;;4792758;29;20489;-71
2022/10/19 02:20:00;;;;;;;39.20;26.13;;;8.40;99.90;;;;;;4787875;30;20038;-72
2022/10/19 02:22:27;;;;;;;35.97;25.33;;;8.40;99.90;;;;;;4776260;30;20028;-72
2022/10/19 02:24:53;;;;;;;34.15;25.75;;;8.40;99.90;;;;;;4785133;30;20031;-72
2022/10/19 02:27:19;;;;;;;34.28;24.13;;;8.40;99.90;;;;;;4780987;30;20433;-73
2022/10/19 02:29:45;;;;;;;38.33;26.20;;;8.40;99.90;;;;;;4783311;30;20116;-72
2022/10/19 02:32:11;;;;;;;33.03;24.38;;;8.30;99.90;;;;;;4785488;30;20031;-73
2022/10/19 02:34:38;;;;;;;37.55;25.05;;;8.20;99.90;;;;;;4784895;30;20063;-72
2022/10/19 02:37:05;;;;;;;38.35;27.23;;;8.20;99.90;;;;;;4777734;29;20031;-72
2022/10/19 02:39:31;;;;;;;35.78;24.30;;;8.20;99.90;;;;;;4788997;29;20102;-73
2022/10/19 02:42:10;;;;;;;40.47;27.80;;;8.20;99.90;;;;;;4782029;30;20069;-75
2022/10/19 02:44:44;;;;;;;42.67;31.05;;;8.20;99.90;;;;;;4774706;30;20032;-72
2022/10/19 02:47:16;;;;;;;39.97;27.17;;;8.20;99.90;;;;;;4787545;30;20067;-72
2022/10/19 02:49:43;;;;;;;39.38;27.25;;;8.20;99.90;;;;;;4770620;30;20047;-71
2022/10/19 02:52:11;;;;;;;44.58;29.02;;;8.20;99.90;;;;;;4787247;30;20023;-72
2022/10/19 02:54:39;;;;;;;39.83;27.52;;;8.10;99.90;;;;;;4787401;30;20031;-73
2022/10/19 02:57:14;;;;;;;39.35;26.88;;;8.10;99.90;;;;;;4787166;29;20029;-72
2022/10/19 02:59:40;;;;;;;40.92;26.95;;;8.10;99.90;;;;;;4786429;30;20043;-72
2022/10/19 03:02:06;;;;;;;38.75;26.20;;;8.10;99.90;;;;;;4780406;30;20027;-73
2022/10/19 03:04:32;;;;;;;40.05;27.55;;;8.10;99.90;;;;;;4787131;30;20035;-72
2022/10/19 03:06:58;;;;;;;39.00;26.30;;;8.20;99.90;;;;;;4787181;30;20024;-72
2022/10/19 03:09:24;;;;;;;52.50;29.40;;;8.20;99.90;;;;;;4786611;29;20499;-72
2022/10/19 03:11:49;;;;;;;40.30;28.90;;;8.10;99.90;;;;;;4790543;30;20475;-72
2022/10/19 03:14:15;;;;;;;37.80;28.63;;;8.10;99.90;;;;;;4790273;30;20035;-73
2022/10/19 03:16:42;;;;;;;38.78;28.95;;;8.10;99.90;;;;;;4790160;30;20035;-73
2022/10/19 03:19:08;;;;;;;40.63;28.83;;;8.00;99.90;;;;;;4789254;30;20039;-72
2022/10/19 03:21:34;;;;;;;47.03;29.95;;;8.10;99.90;;;;;;4789021;30;20094;-72
2022/10/19 03:24:00;;;;;;;41.78;31.17;;;8.00;99.90;;;;;;4790340;30;20036;-72
2022/10/19 03:26:26;;;;;;;44.78;29.48;;;8.10;99.90;;;;;;4790182;30;20031;-71
2022/10/19 03:28:52;;;;;;;40.05;28.42;;;8.20;99.90;;;;;;4788396;30;20066;-72
2022/10/19 03:31:18;;;;;;;41.05;28.13;;;8.30;99.90;;;;;;4788083;30;20102;-72
2022/10/19 03:33:44;;;;;;;32.28;24.88;;;8.20;99.90;;;;;;4783772;30;20069;-75
2022/10/19 03:36:21;;;;;;;36.78;25.08;;;8.20;99.90;;;;;;4790225;29;20464;-74
2022/10/19 03:38:55;;;;;;;37.65;27.60;;;8.20;99.90;;;;;;4789300;30;20027;-75
2022/10/19 03:41:23;;;;;;;37.33;27.33;;;8.20;99.90;;;;;;4790025;30;20035;-74
2022/10/19 03:43:49;;;;;;;37.10;25.13;;;8.20;99.90;;;;;;4790200;30;20035;-74
2022/10/19 03:46:15;;;;;;;39.38;24.90;;;8.20;99.90;;;;;;4789353;30;20037;-74
2022/10/19 03:48:42;;;;;;;38.75;26.77;;;8.20;99.90;;;;;;4790098;30;20044;-75
2022/10/19 03:51:10;;;;;;;33.83;25.15;;;8.20;99.90;;;;;;4790015;30;20039;-74
2022/10/19 03:53:36;;;;;;;34.35;24.63;;;8.30;99.90;;;;;;4790081;30;20040;-75
2022/10/19 03:56:09;;;;;;;36.20;23.48;;;8.30;99.90;;;;;;4789229;30;20479;-75
2022/10/19 03:58:36;;;;;;;;;;;8.40;99.90;;;;;;4790550;30;20047;-75
2022/10/19 04:01:06;;;;;;;36.33;26.38;;;8.40;99.90;;;;;;4783470;30;19932;-75
2022/10/19 04:03:32;;;;;;;34.78;24.45;;;8.50;99.90;;;;;;4783823;30;20112;-74
2022/10/19 04:06:10;;;;;;;34.40;24.83;;;8.50;99.90;;;;;;4789545;30;20471;-75
2022/10/19 04:08:36;;;;;;;35.72;24.75;;;8.50;99.90;;;;;;4778159;30;20043;-75
2022/10/19 04:11:12;;;;;;;28.50;20.75;;;8.50;99.90;;;;;;4782840;30;20527;-74
2022/10/19 04:13:38;;;;;;;33.13;22.05;;;8.40;99.90;;;;;;4788404;30;20114;-75
2022/10/19 04:16:05;;;;;;;34.75;23.55;;;8.40;99.90;;;;;;4789290;30;20111;-74
2022/10/19 04:18:31;;;;;;;31.65;23.17;;;8.50;99.90;;;;;;4788823;30;20035;-75
2022/10/19 04:20:58;;;;;;;31.40;23.08;;;8.50;99.90;;;;;;4785039;29;20097;-72
2022/10/19 04:23:29;;;;;;;35.50;24.38;;;8.60;99.90;;;;;;4788464;30;20069;-72
2022/10/19 04:25:59;;;;;;;34.88;24.48;;;8.50;99.90;;;;;;4789357;30;20490;-72
2022/10/19 04:28:26;;;;;;;37.88;27.38;;;8.50;99.90;;;;;;4788550;29;20563;-74
2022/10/19 04:30:51;;;;;;;37.50;25.60;;;8.60;99.90;;;;;;4788675;30;20035;-74
2022/10/19 04:33:17;;;;;;;33.88;23.55;;;8.50;99.90;;;;;;4782731;30;20054;-74
2022/10/19 04:35:43;;;;;;;38.25;21.48;;;8.50;99.90;;;;;;4788914;30;20053;-74
2022/10/19 04:38:09;;;;;;;36.47;22.98;;;8.50;99.90;;;;;;4788980;30;20077;-75
2022/10/19 04:40:35;;;;;;;34.30;24.55;;;8.50;99.90;;;;;;4789119;30;20512;-75
2022/10/19 04:43:01;;;;;;;34.33;24.27;;;8.50;99.90;;;;;;4788205;30;20031;-75
2022/10/19 04:45:27;;;;;;;39.33;26.65;;;8.40;99.90;;;;;;4788864;30;20116;-75
2022/10/19 04:47:55;;;;;;;41.13;29.73;;;8.40;99.90;;;;;;4789010;30;20055;-75
2022/10/19 04:50:24;;;;;;;45.83;29.95;;;8.40;99.90;;;;;;4788068;30;20031;-75
2022/10/19 04:52:54;;;;;;;41.08;30.17;;;8.50;99.90;;;;;;4788872;29;20043;-75
2022/10/19 04:55:20;;;;;;;39.90;31.17;;;8.60;99.90;;;;;;4788560;30;20146;-75
2022/10/19 04:57:46;;;;;;;50.08;32.35;;;8.60;99.90;;;;;;4788573;30;20035;-75
2022/10/19 05:00:13;;;;;;;45.22;30.77;;;8.70;99.90;;;;;;4771942;30;20070;-75
2022/10/19 05:02:43;;;;;;;41.55;30.95;;;8.70;99.90;;;;;;4789022;30;20490;-74
2022/10/19 05:05:10;;;;;;;38.72;27.67;;;8.70;99.90;;;;;;4789194;30;20397;-75
2022/10/19 05:07:35;;;;;;;35.25;25.73;;;8.80;99.90;;;;;;4788593;30;20030;-74
2022/10/19 05:10:01;;;;;;;37.58;28.70;;;8.80;99.90;;;;;;4787306;30;20051;-75
2022/10/19 05:12:27;;;;;;;44.25;30.50;;;8.80;99.90;;;;;;4776210;30;20031;-75
2022/10/19 05:14:53;;;;;;;43.30;28.23;;;8.80;99.90;;;;;;4788345;30;20070;-75
2022/10/19 05:17:18;;;;;;;38.03;29.77;;;9.00;99.90;;;;;;4787797;30;20024;-75
2022/10/19 05:19:44;;;;;;;41.97;27.60;;;9.30;99.90;;;;;;4778222;30;20035;-75
2022/10/19 05:22:10;;;;;;;43.53;27.65;;;9.50;99.90;;;;;;4781129;30;20027;-74
2022/10/19 05:24:36;;;;;;;38.25;25.73;;;9.90;99.90;;;;;;4786473;30;20028;-75
2022/10/19 05:27:02;;;;;;;34.78;23.77;;;10.30;99.90;;;;;;4787907;30;20031;-75
2022/10/19 05:29:28;;;;;;;41.35;26.67;;;10.60;99.90;;;;;;4786741;30;20063;-75
2022/10/19 05:31:53;;;;;;;37.80;25.50;;;10.90;99.90;;;;;;4786414;29;20441;-75
2022/10/19 05:34:19;;;;;;;44.08;24.35;;;11.20;99.90;;;;;;4786702;30;20040;-75
2022/10/19 05:36:45;;;;;;;37.03;26.10;;;11.20;99.90;;;;;;4781301;30;20077;-76
2022/10/19 05:39:13;;;;;;;38.83;27.42;;;11.50;99.90;;;;;;4780606;30;20412;-75
2022/10/19 05:41:41;;;;;;;35.25;26.83;;;11.60;99.90;;;;;;4786632;30;20513;-73
2022/10/19 05:44:16;;;;;;;35.05;25.88;;;11.90;99.90;;;;;;4785848;30;20445;-73
2022/10/19 05:46:42;;;;;;;35.78;25.95;;;11.40;99.90;;;;;;4787146;30;20035;-72
2022/10/19 05:49:12;;;;;;;39.35;26.98;;;11.30;99.90;;;;;;4787271;30;20042;-73
2022/10/19 05:51:38;;;;;;;39.13;27.15;;;11.20;99.90;;;;;;4786573;30;20566;-72
2022/10/19 05:54:04;;;;;;;35.35;25.65;;;11.10;99.90;;;;;;4786975;30;20176;-72
2022/10/19 05:56:31;;;;;;;41.58;28.70;;;11.10;99.90;;;;;;4786869;30;20759;-72
2022/10/19 05:59:03;;;;;;;42.22;27.42;;;11.20;99.90;;;;;;4786941;29;20593;-72
2022/10/19 06:01:30;;;;;;;37.42;26.13;;;11.20;99.90;;;;;;4786488;29;20050;-72
2022/10/19 06:03:57;;;;;;;36.28;27.05;;;11.20;99.90;;;;;;4774349;30;20092;-72
2022/10/19 06:06:23;;;;;;;45.55;29.00;;;11.20;99.90;;;;;;4780502;30;20031;-76
2022/10/19 06:08:50;;;;;;;40.25;30.42;;;11.40;99.90;;;;;;4780593;30;20404;-75
2022/10/19 06:11:34;;;;;;;37.13;29.40;;;11.40;99.90;;;;;;4779342;30;20028;-75
2022/10/19 06:14:02;;;;;;;38.22;28.55;;;11.50;99.90;;;;;;4786710;30;20483;-74
2022/10/19 06:16:29;;;;;;;40.53;27.33;;;11.60;99.90;;;;;;4786772;30;20471;-75
2022/10/19 06:18:56;;;;;;;38.35;26.63;;;11.60;99.90;;;;;;4786942;30;20038;-75
2022/10/19 06:21:24;;;;;;;40.08;28.33;;;11.80;99.90;;;;;;4785918;30;20094;-75
2022/10/19 06:23:54;;;;;;;38.03;26.30;;;11.80;99.90;;;;;;4786554;30;20035;-74
2022/10/19 06:26:21;;;;;;;39.90;27.63;;;12.00;99.90;;;;;;4753711;30;20032;-75
2022/10/19 06:28:48;;;;;;;38.53;27.50;;;12.10;99.90;;;;;;4763699;30;149130;-75
2022/10/19 06:31:14;;;;;;;40.67;28.63;;;12.20;99.90;;;;;;4780582;30;20031;-74
2022/10/19 06:33:42;;;;;;;47.58;28.08;;;12.40;99.90;;;;;;4787144;30;20123;-74
2022/10/19 06:36:10;;;;;;;40.08;28.00;;;12.60;99.90;;;;;;4787109;30;20066;-75
2022/10/19 06:38:36;;;;;;;39.20;26.63;;;12.70;99.90;;;;;;4779955;30;20032;-74
2022/10/19 06:41:03;;;;;;;36.78;27.13;;;12.80;99.90;;;;;;4784821;30;20047;-75
2022/10/19 06:43:29;;;;;;;36.40;25.33;;;12.90;99.90;;;;;;4786966;29;20464;-75
2022/10/19 06:45:55;;;;;;;34.25;25.60;;;12.90;99.90;;;;;;4787032;30;20087;-75
2022/10/19 06:48:21;;;;;;;35.47;27.40;;;12.90;99.90;;;;;;4786782;30;20088;-75
2022/10/19 06:50:56;;;;;;;40.83;24.83;;;13.00;99.90;;;;;;4782724;30;20067;-75
2022/10/19 06:53:22;;;;;;;35.92;24.95;;;13.10;99.90;;;;;;4780801;30;20031;-72
2022/10/19 06:55:47;;;;;;;33.95;24.63;;;13.10;99.90;;;;;;4787056;30;20038;-73
2022/10/19 06:58:13;;;;;;;32.70;24.10;;;13.20;99.90;;;;;;4774248;30;20762;-72
2022/10/19 07:00:39;;;;;;;35.90;24.98;;;13.50;99.90;;;;;;4783392;30;20047;-73
2022/10/19 07:03:05;;;;;;;40.42;25.90;;;13.50;99.90;;;;;;4768813;30;20035;-72
2022/10/19 07:05:30;;;;;;;35.38;25.27;;;13.70;99.90;;;;;;4785236;30;20042;-73
2022/10/19 07:07:57;;;;;;;33.70;24.35;;;13.80;99.90;;;;;;4786212;30;20036;-72
2022/10/19 07:10:23;;;;;;;38.42;25.40;;;13.90;99.90;;;;;;4785442;30;20026;-72
2022/10/19 07:12:48;;;;;;;34.92;24.17;;;13.90;99.90;;;;;;4771009;30;20379;-73
2022/10/19 07:15:14;;;;;;;28.40;21.38;;;14.00;99.90;;;;;;4778338;30;20031;-72
2022/10/19 07:17:40;;;;;;;31.85;23.48;;;14.00;99.90;;;;;;4779497;30;20437;-75
2022/10/19 07:20:06;;;;;;;29.75;22.17;;;14.10;99.90;;;;;;4786007;30;20386;-74
2022/10/19 07:22:32;;;;;;;31.35;22.08;;;14.20;99.90;;;;;;4785430;30;20044;-74
2022/10/19 07:24:58;;;;;;;35.55;23.98;;;14.30;99.90;;;;;;4785154;30;20131;-72
2022/10/19 07:27:24;;;;;;;34.72;24.27;;;14.30;99.90;;;;;;4786461;29;20088;-75
2022/10/19 07:29:49;;;;;;;30.73;23.05;;;14.30;99.90;;;;;;4786506;30;20384;-75
2022/10/19 07:32:15;;;;;;;34.63;22.77;;;14.40;99.90;;;;;;4786792;30;20032;-75
2022/10/19 07:34:41;;;;;;;32.05;23.25;;;14.60;99.90;;;;;;4770756;30;20062;-74
2022/10/19 07:37:07;;;;;;;32.70;22.63;;;14.60;99.90;;;;;;4786076;30;20023;-74
2022/10/19 07:39:33;;;;;;;35.42;25.70;;;14.70;99.90;;;;;;4786310;30;20035;-74
2022/10/19 07:41:58;;;;;;;36.00;26.88;;;14.90;99.90;;;;;;4786687;30;20046;-76
2022/10/19 07:44:24;;;;;;;36.35;25.15;;;15.00;99.90;;;;;;4785956;30;20036;-74
2022/10/19 07:46:50;;;;;;;32.17;24.02;;;15.10;99.90;;;;;;4785388;30;20437;-74
2022/10/19 07:49:17;;;;;;;33.60;24.85;;;15.30;99.90;;;;;;4778784;30;20043;-74
2022/10/19 07:51:45;;;;;;;33.83;21.83;;;15.50;99.90;;;;;;4786438;30;20492;-74
2022/10/19 07:54:10;;;;;;;30.92;21.70;;;15.40;99.90;;;;;;4780852;30;20019;-72
2022/10/19 07:56:36;;;;;;;32.85;22.15;;;15.50;99.90;;;;;;4788244;29;20380;-72
2022/10/19 07:59:04;;;;;;;34.53;22.92;;;15.70;99.90;;;;;;4789431;30;20471;-74
2022/10/19 08:01:37;;;;;;;30.65;21.40;;;15.90;99.90;;;;;;4790006;29;20479;-72
2022/10/19 08:04:03;;;;;;;33.08;20.48;;;15.90;99.90;;;;;;4782692;29;20039;-72
2022/10/19 08:06:29;;;;;;;32.03;19.52;;;16.00;99.90;;;;;;4789545;30;20379;-74
2022/10/19 08:08:55;;;;;;;30.67;20.65;;;16.10;99.90;;;;;;4787475;30;20576;-72
2022/10/19 08:11:26;;;;;;;27.55;18.63;;;16.10;99.90;;;;;;4789677;30;20479;-72
2022/10/19 08:13:53;;;;;;;30.67;19.23;;;16.20;99.90;;;;;;4789705;29;20062;-72
2022/10/19 08:16:25;;;;;;;34.85;20.58;;;16.30;99.90;;;;;;4789683;30;20467;-72
2022/10/19 08:18:52;;;;;;;24.17;18.88;;;16.40;99.90;;;;;;4785950;30;20502;-72
2022/10/19 08:21:18;;;;;;;27.13;17.90;;;16.40;99.90;;;;;;4789336;30;20519;-72
2022/10/19 08:23:43;;;;;;;30.27;19.98;;;16.40;99.90;;;;;;4789435;30;20066;-72
2022/10/19 08:26:09;;;;;;;27.67;19.00;;;16.30;99.90;;;;;;4789820;30;20039;-73
2022/10/19 08:28:35;;;;;;;30.70;20.30;;;16.30;99.90;;;;;;4784827;30;20063;-72
2022/10/19 08:31:16;;;;;;;29.42;20.33;;;16.50;99.90;;;;;;4779550;30;20390;-72
2022/10/19 08:33:42;;;;;;;29.20;20.20;;;16.40;99.90;;;;;;4789131;29;20031;-72
2022/10/19 08:36:09;;;;;;;26.88;19.23;;;16.50;99.90;;;;;;4789290;30;20027;-71
2022/10/19 08:38:35;;;;;;;29.70;19.65;;;16.60;99.90;;;;;;4788736;30;20046;-72
2022/10/19 08:41:21;;;;;;;25.35;19.67;;;16.50;99.90;;;;;;4786283;30;20067;-71
2022/10/19 08:44:10;;;;;;;26.13;19.02;;;16.60;99.90;;;;;;4784950;30;20482;-72
2022/10/19 08:46:38;;;;;;;27.80;18.48;;;16.70;99.90;;;;;;4796252;29;20118;-71
2022/10/19 08:49:06;;;;;;;27.48;19.30;;;16.90;99.90;;;;;;4795414;29;20039;-70
2022/10/19 08:51:37;;;;;;;24.10;18.35;;;17.00;99.90;;;;;;4797839;29;20026;-72
2022/10/19 08:54:11;;;;;;;27.35;18.52;;;16.90;99.90;;;;;;4792532;29;20474;-74
2022/10/19 08:56:49;;;;;;;26.85;18.63;;;16.90;99.90;;;;;;4772459;30;20130;-74
2022/10/19 08:59:35;;;;;;;29.05;19.55;;;16.90;99.90;;;;;;4786095;30;20071;-70
2022/10/19 09:02:17;;;;;;;26.08;18.95;;;17.10;99.90;;;;;;4790888;29;20041;-71
2022/10/19 09:05:36;;;;;;;28.15;19.13;;;17.20;99.90;;;;;;4790630;29;20478;-73
2022/10/19 09:08:21;;;;;;;27.55;18.60;;;17.30;99.90;;;;;;4722981;30;20053;-74
2022/10/19 09:10:51;;;;;;;30.33;21.00;;;17.20;99.90;;;;;;4728027;30;20073;-73
2022/10/19 09:13:38;;;;;;;28.23;19.38;;;17.20;99.90;;;;;;4733195;30;20029;-72
2022/10/19 09:16:12;;;;;;;27.58;19.75;;;17.40;99.90;;;;;;4728647;30;20064;-72
2022/10/19 09:18:38;;;;;;;29.83;19.63;;;17.30;99.90;;;;;;4719783;30;20397;-72
2022/10/19 09:21:24;;;;;;;24.83;20.10;;;17.40;99.90;;;;;;4714282;30;20103;-71
2022/10/19 09:24:04;;;;;;;26.42;20.30;;;17.50;99.90;;;;;;4715168;30;20126;-70
2022/10/19 09:26:59;;;;;;;26.30;19.70;;;17.50;99.90;;;;;;4718314;30;20067;-72
2022/10/19 09:29:54;;;;;;;27.65;20.83;;;17.60;99.90;;;;;;4714354;30;20057;-74
2022/10/19 09:32:25;;;;;;;30.45;23.55;;;17.60;99.90;;;;;;4715278;30;20484;-72
2022/10/19 09:34:55;;;;;;;32.28;21.63;;;17.80;99.90;;;;;;4714089;30;20040;-73
2022/10/19 09:37:23;;;;;;;28.30;20.98;;;17.90;99.90;;;;;;4715880;30;20480;-76
2022/10/19 09:39:50;;;;;;;29.88;20.83;;;17.90;99.90;;;;;;4722286;30;20044;-71
2022/10/19 09:42:29;;;;;;;38.78;22.13;;;18.00;99.90;;;;;;4736888;30;20091;-72
2022/10/19 09:44:57;;;;;;;31.90;20.70;;;17.90;99.90;;;;;;4795257;29;20038;-71
2022/10/19 09:47:33;;;;;;;30.83;20.58;;;17.90;99.90;;;;;;4791208;29;20474;-72
2022/10/19 09:50:18;;;;;;;32.15;22.85;;;18.10;99.90;;;;;;4797466;29;20026;-72
2022/10/19 09:52:46;;;;;;;30.45;20.35;;;18.10;99.90;;;;;;4790951;29;20035;-71
2022/10/19 09:55:43;;;;;;;28.67;22.42;;;18.30;99.90;;;;;;4784888;29;20028;-72
2022/10/19 09:58:12;;;;;;;28.00;21.30;;;18.30;99.90;;;;;;4783483;30;20455;-71
2022/10/19 10:00:57;;;;;;;27.13;19.73;;;18.40;99.90;;;;;;4789411;29;20043;-72
2022/10/19 10:03:42;;;;;;;27.98;20.42;;;18.40;99.90;;;;;;4790360;29;20035;-72
2022/10/19 10:06:12;;;;;;;28.23;19.67;;;18.40;99.90;;;;;;4787325;29;20088;-71
2022/10/19 10:08:47;;;;;;;29.13;19.30;;;18.30;99.90;;;;;;4768115;29;20077;-72
2022/10/19 10:11:21;;;;;;;31.33;20.90;;;18.30;99.90;;;;;;4783095;29;20438;-72
2022/10/19 10:13:51;;;;;;;29.40;19.70;;;18.60;99.90;;;;;;4789514;29;20114;-72
2022/10/19 10:16:20;;;;;;;27.48;19.15;;;18.60;99.90;;;;;;4778493;29;20041;-72
2022/10/19 10:18:55;;;;;;;26.35;18.65;;;18.60;99.90;;;;;;4772568;29;20440;-72
2022/10/19 10:21:32;;;;;;;24.90;19.08;;;18.70;99.90;;;;;;4773688;29;20388;-75
2022/10/19 10:24:04;;;;;;;24.75;18.92;;;18.60;99.90;;;;;;4767848;29;20115;-72
2022/10/19 10:26:36;;;;;;;27.33;19.67;;;18.50;99.90;;;;;;4773144;29;20031;-72
2022/10/19 10:29:02;;;;;;;23.85;17.63;;;18.40;99.90;;;;;;4767345;29;20125;-72
2022/10/19 10:31:29;;;;;;;23.25;17.65;;;18.60;99.90;;;;;;4770158;29;20074;-71
2022/10/19 10:34:04;;;;;;;21.45;16.25;;;18.80;99.90;;;;;;4774566;29;20383;-72
2022/10/19 10:36:31;;;;;;;23.58;17.02;;;18.70;99.90;;;;;;4768156;29;20059;-75
2022/10/19 10:39:07;;;;;;;22.75;16.60;;;18.60;99.90;;;;;;4785140;29;20435;-71
2022/10/19 10:41:39;;;;;;;24.13;17.75;;;18.70;99.90;;;;;;4776665;29;20059;-72
2022/10/19 10:44:15;;;;;;;23.10;16.92;;;18.90;99.90;;;;;;4779797;29;20063;-72
2022/10/19 10:46:55;;;;;;;22.73;17.77;;;18.90;99.90;;;;;;4788001;29;20041;-72
2022/10/19 10:49:28;;;;;;;24.80;17.75;;;18.90;99.90;;;;;;4787159;30;20114;-73
2022/10/19 10:52:03;;;;;;;23.83;18.08;;;19.00;99.90;;;;;;4786754;29;20035;-72
2022/10/19 10:54:31;;;;;;;25.23;17.80;;;19.00;99.90;;;;;;4786696;29;20043;-72
2022/10/19 10:57:19;;;;;;;24.83;17.90;;;19.10;99.90;;;;;;4770937;30;20399;-72
2022/10/19 10:59:58;;;;;;;22.88;16.85;;;19.10;99.90;;;;;;4786838;30;20119;-72
2022/10/19 11:02:29;;;;;;;22.88;16.92;;;19.10;99.90;;;;;;4786898;30;20098;-72
2022/10/19 11:05:05;;;;;;;25.83;17.30;;;18.90;99.90;;;;;;4786895;30;20384;-72
2022/10/19 11:07:33;;;;;;;22.73;17.10;;;18.90;99.90;;;;;;4786819;30;20019;-72
2022/10/19 11:10:08;;;;;;;25.95;18.00;;;18.80;99.90;;;;;;4786910;30;20115;-72
2022/10/19 11:12:43;;;;;;;22.90;17.00;;;18.80;99.90;;;;;;4786664;30;20039;-72
2022/10/19 11:15:15;;;;;;;24.83;17.15;;;18.70;99.90;;;;;;4767083;30;20110;-72
2022/10/19 11:18:14;;;;;;;26.13;18.85;;;18.70;99.90;;;;;;4784123;30;20383;-72
2022/10/19 11:20:48;;;;;;;29.92;18.83;;;18.60;99.90;;;;;;4714107;30;20064;-71
2022/10/19 11:23:43;;;;;;;28.75;17.23;;;18.50;99.90;;;;;;4713906;30;20392;-72
2022/10/19 11:26:39;;;;;;;26.65;19.67;;;18.50;99.90;;;;;;4694052;30;20045;-72
2022/10/19 11:29:11;;;;;;;27.70;17.05;;;18.40;99.90;;;;;;4713656;30;20100;-72
2022/10/19 11:31:53;;;;;;;28.58;19.13;;;18.40;99.90;;;;;;4716278;30;20053;-72
2022/10/19 11:34:45;;;;;;;25.45;18.45;;;18.30;99.90;;;;;;4717357;30;20160;-72
2022/10/19 11:37:27;;;;;;;26.90;19.25;;;18.30;99.90;;;;;;4717497;30;20041;-72
2022/10/19 11:40:16;;;;;;;28.85;19.00;;;18.30;99.90;;;;;;4717386;30;20049;-73
2022/10/19 11:43:08;;;;;;;27.15;20.42;;;18.20;99.90;;;;;;4710025;30;20045;-74
2022/10/19 11:46:09;;;;;;;27.15;17.45;;;18.20;99.90;;;;;;4716956;30;20045;-74
2022/10/19 11:48:40;;;;;;;25.10;18.58;;;18.10;99.90;;;;;;4682101;30;20085;-73
2022/10/19 11:51:20;;;;;;;26.15;19.50;;;18.10;99.90;;;;;;4682422;30;20526;-73
2022/10/19 11:54:00;;;;;;;29.10;20.23;;;18.10;99.90;;;;;;4682361;30;20497;-73
2022/10/19 11:56:32;;;;;;;28.33;19.92;;;18.10;99.90;;;;;;4679846;30;20050;-73
2022/10/19 11:59:16;;;;;;;24.70;17.20;;;18.20;99.90;;;;;;4716814;30;20464;-72
2022/10/19 12:02:08;;;;;;;26.40;18.02;;;18.40;99.90;;;;;;4716290;30;20036;-72
2022/10/19 12:04:52;;;;;;;28.40;17.42;;;18.60;99.90;;;;;;4716328;30;20060;-72
2022/10/19 12:07:33;;;;;;;26.67;18.38;;;18.60;99.90;;;;;;4716669;30;20115;-72
2022/10/19 12:10:27;;;;;;;27.60;18.48;;;18.80;99.90;;;;;;4716316;30;20539;-72
2022/10/19 12:13:00;;;;;;;25.83;17.00;;;18.90;99.90;;;;;;4716634;30;20036;-72
2022/10/19 12:15:38;;;;;;;23.95;16.60;;;18.90;99.90;;;;;;4716880;30;20039;-72
2022/10/19 12:18:47;;;;;;;27.02;20.02;;;18.90;99.90;;;;;;4713116;30;20084;-73
2022/10/19 12:21:22;;;;;;;26.35;19.17;;;19.00;99.90;;;;;;4721381;30;20095;-72
2022/10/19 12:23:49;;;;;;;22.33;17.33;;;19.00;99.90;;;;;;4741403;30;20051;-72
2022/10/19 12:26:17;;;;;;;28.13;18.80;;;19.10;99.90;;;;;;4793529;29;20031;-72
2022/10/19 12:29:02;;;;;;;26.92;17.90;;;19.00;99.90;;;;;;4800712;29;20172;-72
2022/10/19 12:31:35;;;;;;;24.42;17.40;;;19.10;99.90;;;;;;4792550;29;20043;-73
2022/10/19 12:34:13;;;;;;;26.52;17.63;;;19.10;99.90;;;;;;4796685;29;20031;-72
2022/10/19 12:37:10;;;;;;;24.73;17.02;;;19.20;99.90;;;;;;4781644;30;20035;-72
2022/10/19 12:40:19;;;;;;;24.13;16.27;;;19.10;99.90;;;;;;4789713;30;20048;-71
2022/10/19 12:42:59;;;;;;;26.35;17.75;;;19.10;99.90;;;;;;4789579;29;20027;-73
2022/10/19 12:45:53;;;;;;;26.00;17.95;;;19.10;99.90;;;;;;4800268;29;20038;-73
2022/10/19 12:48:26;;;;;;;23.65;17.70;;;19.10;99.90;;;;;;4763972;30;20039;-72
2022/10/19 12:50:52;;;;;;;23.02;17.40;;;19.10;99.90;;;;;;4789739;30;20034;-73
2022/10/19 12:53:38;;;;;;;23.85;16.02;;;19.00;99.90;;;;;;4789471;29;20035;-71